Time;durP1;ratioP1;P1;durP2;ratioP2;P2;SDS_P1;SDS_P2;PMS_P1;PMS_P2;Temp;Humidity;BMP_temperature;BMP_pressure;BME280_temperature;BME280_humidity;BME280_pressure;Samples;Min_cycle;Max_cycle;Signal;HPM_P1;HPM_P2
2021/03/18 00:00:42;;;;;;;19.48;12.55;;;;;;;;;;5020206;28;20025;-84
2021/03/18 00:03:09;;;;;;;19.55;11.30;;;;;;;;;;5020163;28;20026;-84
2021/03/18 00:05:35;;;;;;;17.88;10.40;;;;;;;;;;5020120;28;20412;-84
2021/03/18 00:08:01;;;;;;;18.02;10.32;;;;;;;;;;5020061;28;20316;-82
2021/03/18 00:10:28;;;;;;;14.60;9.38;;;;;;;;;;5020055;28;20026;-84
2021/03/18 00:12:54;;;;;;;15.93;10.35;;;;;;;;;;5020061;28;20025;-83
2021/03/18 00:15:20;;;;;;;17.08;9.05;;;;;;;;;;5019689;28;20026;-83
2021/03/18 00:17:46;;;;;;;16.35;10.00;;;;;;;;;;5020084;28;20022;-85
2021/03/18 00:20:13;;;;;;;16.63;10.02;;;;;;;;;;5002432;28;20412;-85
2021/03/18 00:22:43;;;;;;;15.32;9.27;;;;;;;;;;5019692;28;20136;-84
2021/03/18 00:25:10;;;;;;;18.13;10.95;;;;;;;;;;5019887;28;20068;-86
2021/03/18 00:27:36;;;;;;;15.65;9.45;;;;;;;;;;5020132;28;20026;-86
2021/03/18 00:30:03;;;;;;;18.88;10.25;;;;;;;;;;5019958;28;20018;-87
2021/03/18 00:32:29;;;;;;;13.95;9.23;;;;;;;;;;5020034;28;20021;-87
2021/03/18 00:34:55;;;;;;;17.73;10.93;;;;;;;;;;5019561;28;20022;-86
2021/03/18 00:37:21;;;;;;;15.60;10.25;;;;;;;;;;5019749;28;20061;-86
2021/03/18 00:39:48;;;;;;;17.38;11.10;;;;;;;;;;5019628;28;20022;-87
2021/03/18 00:42:14;;;;;;;14.77;10.52;;;;;;;;;;5002213;28;20061;-86
2021/03/18 00:44:40;;;;;;;16.08;10.18;;;;;;;;;;5019512;28;20025;-86
2021/03/18 00:47:06;;;;;;;18.65;12.13;;;;;;;;;;5019587;28;20053;-85
2021/03/18 00:49:32;;;;;;;23.52;14.50;;;;;;;;;;5018436;28;20332;-84
2021/03/18 00:51:58;;;;;;;19.88;11.13;;;;;;;;;;5019603;28;20030;-84
2021/03/18 00:54:24;;;;;;;17.48;9.73;;;;;;;;;;5019156;28;20060;-85
2021/03/18 00:56:50;;;;;;;17.48;9.70;;;;;;;;;;5019154;28;20064;-84
2021/03/18 00:59:16;;;;;;;16.13;9.20;;;;;;;;;;5001937;28;20025;-84
2021/03/18 01:01:42;;;;;;;16.48;9.90;;;;;;;;;;5019054;28;20125;-83
2021/03/18 01:04:08;;;;;;;13.57;8.93;;;;;;;;;;5019066;28;20081;-84
2021/03/18 01:06:37;;;;;;;14.73;9.60;;;;;;;;;;5019133;28;20030;-85
2021/03/18 01:09:05;;;;;;;14.98;9.52;;;;;;;;;;5019357;28;20431;-85
2021/03/18 01:11:33;;;;;;;13.82;9.52;;;;;;;;;;5019006;28;20029;-86
2021/03/18 01:14:00;;;;;;;16.23;10.70;;;;;;;;;;5018742;28;20034;-86
2021/03/18 01:16:28;;;;;;;23.13;12.00;;;;;;;;;;5001166;28;20048;-86
2021/03/18 01:18:57;;;;;;;16.75;11.38;;;;;;;;;;5018870;28;20022;-85
2021/03/18 01:21:25;;;;;;;18.30;11.38;;;;;;;;;;5001432;28;20478;-86
2021/03/18 01:23:51;;;;;;;19.85;12.50;;;;;;;;;;5018698;28;20034;-85
2021/03/18 01:26:17;;;;;;;16.48;11.43;;;;;;;;;;5018435;28;20022;-83
2021/03/18 01:28:43;;;;;;;17.48;10.90;;;;;;;;;;5018304;28;20045;-83
2021/03/18 01:31:10;;;;;;;19.45;11.60;;;;;;;;;;5018482;28;20022;-83
2021/03/18 01:33:37;;;;;;;16.90;11.35;;;;;;;;;;5018239;28;20030;-83
2021/03/18 01:36:04;;;;;;;18.60;10.45;;;;;;;;;;5018206;28;20412;-83
2021/03/18 01:38:30;;;;;;;17.83;10.50;;;;;;;;;;5018421;28;20026;-87
2021/03/18 01:40:57;;;;;;;19.73;11.00;;;;;;;;;;5018693;28;20046;-87
2021/03/18 01:43:24;;;;;;;16.75;11.07;;;;;;;;;;5018724;28;20022;-87
2021/03/18 01:45:50;;;;;;;18.50;11.50;;;;;;;;;;5018176;28;20120;-87
2021/03/18 01:48:16;;;;;;;18.00;11.15;;;;;;;;;;5018345;28;20466;-87
2021/03/18 01:50:43;;;;;;;20.67;10.98;;;;;;;;;;5018191;28;20053;-86
2021/03/18 01:53:09;;;;;;;20.67;11.15;;;;;;;;;;5018230;28;20030;-86
2021/03/18 01:55:39;;;;;;;15.93;10.40;;;;;;;;;;5018171;28;20018;-87
2021/03/18 01:58:07;;;;;;;21.13;11.32;;;;;;;;;;5018446;28;20061;-86
2021/03/18 02:00:34;;;;;;;21.65;11.10;;;;;;;;;;5018365;28;20022;-86
2021/03/18 02:03:01;;;;;;;20.02;11.85;;;;;;;;;;5018129;28;20069;-88
2021/03/18 02:05:27;;;;;;;18.20;10.73;;;;;;;;;;5018226;28;20022;-88
2021/03/18 02:07:54;;;;;;;18.15;10.55;;;;;;;;;;5018185;28;20029;-89
2021/03/18 02:10:21;;;;;;;16.85;10.77;;;;;;;;;;5000933;28;20034;-89
2021/03/18 02:12:47;;;;;;;18.52;10.70;;;;;;;;;;5018169;28;20026;-89
2021/03/18 02:15:13;;;;;;;18.92;10.32;;;;;;;;;;5017910;28;20404;-87
2021/03/18 02:17:39;;;;;;;17.33;10.75;;;;;;;;;;5017241;28;20037;-85
2021/03/18 02:20:24;;;;;;;17.90;10.80;;;;;;;;;;5017811;28;20033;-85
2021/03/18 02:23:09;;;;;;;17.70;10.57;;;;;;;;;;5017766;28;20053;-84
2021/03/18 02:25:41;;;;;;;18.33;11.07;;;;;;;;;;5000303;28;20034;-83
2021/03/18 02:28:25;;;;;;;18.35;11.77;;;;;;;;;;5017809;28;20022;-83
2021/03/18 02:31:00;;;;;;;18.70;11.25;;;;;;;;;;5000073;28;20026;-84
2021/03/18 02:33:41;;;;;;;19.30;11.73;;;;;;;;;;5017384;28;20116;-84
2021/03/18 02:36:10;;;;;;;17.63;11.07;;;;;;;;;;5017454;28;20021;-84
2021/03/18 02:38:40;;;;;;;18.42;11.02;;;;;;;;;;5017596;28;20018;-83
2021/03/18 02:41:08;;;;;;;16.50;10.98;;;;;;;;;;5017437;28;20408;-83
2021/03/18 02:43:39;;;;;;;18.55;11.38;;;;;;;;;;5017571;28;20421;-83
2021/03/18 02:46:06;;;;;;;17.95;11.43;;;;;;;;;;5017454;28;20071;-84
2021/03/18 02:48:37;;;;;;;15.45;10.45;;;;;;;;;;5017803;28;20407;-85
2021/03/18 02:51:04;;;;;;;21.15;12.05;;;;;;;;;;5017618;28;20030;-84
2021/03/18 02:53:31;;;;;;;17.65;10.50;;;;;;;;;;5017382;28;20474;-82
2021/03/18 02:55:59;;;;;;;17.85;11.23;;;;;;;;;;5017460;28;20030;-84
2021/03/18 02:58:27;;;;;;;18.48;11.65;;;;;;;;;;5000175;28;20033;-85
2021/03/18 03:00:54;;;;;;;17.27;10.95;;;;;;;;;;5017578;28;20026;-84
2021/03/18 03:03:21;;;;;;;20.95;11.68;;;;;;;;;;5017390;28;20417;-84
2021/03/18 03:05:49;;;;;;;19.98;12.48;;;;;;;;;;4999958;28;20052;-85
2021/03/18 03:08:16;;;;;;;19.98;12.25;;;;;;;;;;5017546;28;20029;-84
2021/03/18 03:10:43;;;;;;;15.80;11.10;;;;;;;;;;5017272;28;20026;-84
2021/03/18 03:13:09;;;;;;;19.63;11.85;;;;;;;;;;5016924;28;20036;-83
2021/03/18 03:15:35;;;;;;;20.65;12.98;;;;;;;;;;5017050;28;20041;-84
2021/03/18 03:18:05;;;;;;;21.02;12.95;;;;;;;;;;5017006;28;20018;-83
2021/03/18 03:20:31;;;;;;;19.88;13.20;;;;;;;;;;4999307;28;20089;-83
2021/03/18 03:22:58;;;;;;;19.63;13.95;;;;;;;;;;5016829;28;20046;-81
2021/03/18 03:25:25;;;;;;;24.98;13.55;;;;;;;;;;5016969;28;20072;-83
2021/03/18 03:27:52;;;;;;;18.92;11.88;;;;;;;;;;4999991;28;20026;-84
2021/03/18 03:30:18;;;;;;;21.40;12.38;;;;;;;;;;5016969;28;20018;-83
2021/03/18 03:32:45;;;;;;;23.73;13.32;;;;;;;;;;4999899;28;20026;-84
2021/03/18 03:35:12;;;;;;;25.95;13.35;;;;;;;;;;5016864;28;20029;-83
2021/03/18 03:37:39;;;;;;;27.02;13.63;;;;;;;;;;5017329;28;20451;-83
2021/03/18 03:40:07;;;;;;;28.52;13.90;;;;;;;;;;5020817;28;20018;-86
2021/03/18 03:42:33;;;;;;;27.27;13.55;;;;;;;;;;5020686;28;20018;-86
2021/03/18 03:45:00;;;;;;;24.48;12.70;;;;;;;;;;5020648;28;20026;-86
2021/03/18 03:47:26;;;;;;;22.85;12.73;;;;;;;;;;5020522;28;20400;-86
2021/03/18 03:49:53;;;;;;;24.00;12.57;;;;;;;;;;5020854;28;20072;-86
2021/03/18 03:52:35;;;;;;;26.35;13.57;;;;;;;;;;5020573;28;20116;-84
2021/03/18 03:55:01;;;;;;;;;;;;;;;;;;5021083;28;20030;-85
2021/03/18 03:57:47;;;;;;;26.77;13.57;;;;;;;;;;5020317;28;19905;-84
2021/03/18 04:00:14;;;;;;;23.02;13.13;;;;;;;;;;4921974;29;20036;-85
2021/03/18 04:02:41;;;;;;;23.83;13.77;;;;;;;;;;4922231;29;20150;-85
2021/03/18 04:05:07;;;;;;;23.77;13.40;;;;;;;;;;4906312;29;20032;-86
2021/03/18 04:07:36;;;;;;;19.20;12.10;;;;;;;;;;4922074;29;20032;-85
2021/03/18 04:10:02;;;;;;;22.52;13.30;;;;;;;;;;4906069;29;20098;-86
2021/03/18 04:12:32;;;;;;;21.85;13.27;;;;;;;;;;4921696;29;20411;-85
2021/03/18 04:15:01;;;;;;;25.00;14.45;;;;;;;;;;4921972;29;20400;-86
2021/03/18 04:17:28;;;;;;;25.23;15.13;;;;;;;;;;4906184;29;20036;-86
2021/03/18 04:19:57;;;;;;;23.40;13.45;;;;;;;;;;4921963;29;20039;-86
2021/03/18 04:22:28;;;;;;;22.52;13.82;;;;;;;;;;4921447;29;20051;-84
2021/03/18 04:24:54;;;;;;;19.45;12.82;;;;;;;;;;4906117;29;20044;-85
2021/03/18 04:27:21;;;;;;;19.45;12.23;;;;;;;;;;4921561;29;20028;-83
2021/03/18 04:29:47;;;;;;;35.10;20.75;;;;;;;;;;4905874;29;20335;-85
2021/03/18 04:32:15;;;;;;;18.92;12.35;;;;;;;;;;4921302;29;20028;-82
2021/03/18 04:34:41;;;;;;;18.45;12.35;;;;;;;;;;4920855;29;20028;-82
2021/03/18 04:37:08;;;;;;;19.35;11.82;;;;;;;;;;4964331;28;20094;-85
2021/03/18 04:39:35;;;;;;;17.25;10.93;;;;;;;;;;5002344;28;20109;-84
2021/03/18 04:42:02;;;;;;;18.50;10.93;;;;;;;;;;5019653;28;20018;-84
2021/03/18 04:44:28;;;;;;;18.20;11.15;;;;;;;;;;5019587;28;20026;-85
2021/03/18 04:46:55;;;;;;;18.42;11.13;;;;;;;;;;5019309;28;20037;-84
2021/03/18 04:49:23;;;;;;;17.40;10.02;;;;;;;;;;5018207;28;20056;-85
2021/03/18 04:51:49;;;;;;;18.45;11.63;;;;;;;;;;5019692;28;20316;-84
2021/03/18 04:54:16;;;;;;;19.27;11.30;;;;;;;;;;5018918;28;20117;-84
2021/03/18 04:56:43;;;;;;;18.23;11.40;;;;;;;;;;5001965;28;20168;-85
2021/03/18 04:59:12;;;;;;;19.58;11.73;;;;;;;;;;5019135;28;20313;-84
2021/03/18 05:01:39;;;;;;;19.13;11.98;;;;;;;;;;5019074;28;20404;-83
2021/03/18 05:04:05;;;;;;;23.10;11.50;;;;;;;;;;5018791;28;20018;-84
2021/03/18 05:06:31;;;;;;;20.88;12.48;;;;;;;;;;5018651;28;20030;-82
2021/03/18 05:09:00;;;;;;;23.17;12.20;;;;;;;;;;5019011;28;20041;-83
2021/03/18 05:11:26;;;;;;;24.52;12.55;;;;;;;;;;5018552;28;20049;-84
2021/03/18 05:13:54;;;;;;;16.95;11.20;;;;;;;;;;5001208;28;20150;-83
2021/03/18 05:16:20;;;;;;;19.58;10.43;;;;;;;;;;5001279;28;20049;-83
2021/03/18 05:18:46;;;;;;;21.52;10.40;;;;;;;;;;5018750;28;20022;-84
2021/03/18 05:21:13;;;;;;;18.67;11.48;;;;;;;;;;5018639;28;20483;-84
2021/03/18 05:23:40;;;;;;;19.40;11.38;;;;;;;;;;5018756;28;20077;-83
2021/03/18 05:26:06;;;;;;;18.63;11.75;;;;;;;;;;5018679;28;20073;-84
2021/03/18 05:28:32;;;;;;;20.13;12.75;;;;;;;;;;5018444;28;20022;-84
2021/03/18 05:30:58;;;;;;;25.00;14.02;;;;;;;;;;5018257;28;20030;-84
2021/03/18 05:33:24;;;;;;;20.23;12.10;;;;;;;;;;5001049;28;20038;-85
2021/03/18 05:35:50;;;;;;;17.05;10.80;;;;;;;;;;5018577;28;20025;-86
2021/03/18 05:38:17;;;;;;;17.73;11.60;;;;;;;;;;5018608;28;20022;-87
2021/03/18 05:40:44;;;;;;;20.75;12.40;;;;;;;;;;5018858;28;20025;-88
2021/03/18 05:43:10;;;;;;;46.40;30.50;;;;;;;;;;5018730;28;20022;-86
2021/03/18 05:45:36;;;;;;;24.67;13.35;;;;;;;;;;5018638;28;20119;-86
2021/03/18 05:48:03;;;;;;;19.85;12.40;;;;;;;;;;5018300;28;20022;-85
2021/03/18 05:50:29;;;;;;;21.17;12.20;;;;;;;;;;5018357;28;20032;-86
2021/03/18 05:52:56;;;;;;;20.05;12.20;;;;;;;;;;5018063;28;20030;-86
2021/03/18 05:55:23;;;;;;;80.68;37.17;;;;;;;;;;5018304;28;20032;-86
2021/03/18 05:57:52;;;;;;;36.50;19.33;;;;;;;;;;5018477;28;20044;-86
2021/03/18 06:00:19;;;;;;;26.23;16.50;;;;;;;;;;5017927;28;20057;-86
2021/03/18 06:02:45;;;;;;;17.83;11.88;;;;;;;;;;5018252;28;20105;-84
2021/03/18 06:05:12;;;;;;;16.35;11.35;;;;;;;;;;5000784;28;20030;-84
2021/03/18 06:07:40;;;;;;;15.43;9.88;;;;;;;;;;5018035;28;20036;-84
2021/03/18 06:10:08;;;;;;;19.80;13.18;;;;;;;;;;5017942;28;20424;-84
2021/03/18 06:12:35;;;;;;;20.60;12.63;;;;;;;;;;5017934;28;20029;-86
2021/03/18 06:15:01;;;;;;;17.60;11.75;;;;;;;;;;5017992;28;20022;-85
2021/03/18 06:17:31;;;;;;;16.48;10.60;;;;;;;;;;5000394;28;20022;-86
2021/03/18 06:19:58;;;;;;;17.92;11.85;;;;;;;;;;5000711;28;20022;-85
2021/03/18 06:22:36;;;;;;;14.65;9.82;;;;;;;;;;5017862;28;20092;-85
2021/03/18 06:25:02;;;;;;;16.27;9.93;;;;;;;;;;5017893;28;20037;-85
2021/03/18 06:27:28;;;;;;;17.27;10.38;;;;;;;;;;5017683;28;20173;-88
2021/03/18 06:29:56;;;;;;;15.80;9.95;;;;;;;;;;5000913;28;20340;-89
2021/03/18 06:32:22;;;;;;;17.13;10.40;;;;;;;;;;4999912;28;20037;-86
2021/03/18 06:34:52;;;;;;;16.70;10.77;;;;;;;;;;5017165;28;20117;-86
2021/03/18 06:37:32;;;;;;;19.30;11.23;;;;;;;;;;5000017;28;20405;-83
2021/03/18 06:40:18;;;;;;;19.77;11.07;;;;;;;;;;4999778;28;20069;-85
2021/03/18 06:43:00;;;;;;;19.42;10.65;;;;;;;;;;5006359;28;20030;-92
2021/03/18 06:45:32;;;;;;;16.98;11.13;;;;;;;;;;5016903;28;20077;-84
2021/03/18 06:48:03;;;;;;;16.42;11.05;;;;;;;;;;4997791;28;20333;-87
2021/03/18 06:50:31;;;;;;;19.05;11.48;;;;;;;;;;5012884;28;20049;-83
2021/03/18 06:52:57;;;;;;;20.98;11.32;;;;;;;;;;5017386;28;20105;-83
2021/03/18 06:55:26;;;;;;;21.25;11.90;;;;;;;;;;5017421;28;20018;-83
2021/03/18 06:58:11;;;;;;;22.38;12.25;;;;;;;;;;5017343;28;20022;-83
2021/03/18 07:00:37;;;;;;;21.65;13.02;;;;;;;;;;5000025;28;20064;-84
2021/03/18 07:03:03;;;;;;;32.38;18.50;;;;;;;;;;5000030;28;20018;-83
2021/03/18 07:05:37;;;;;;;32.53;18.73;;;;;;;;;;5017357;28;20037;-84
2021/03/18 07:08:03;;;;;;;42.03;22.90;;;;;;;;;;5017279;28;20026;-83
2021/03/18 07:10:33;;;;;;;27.45;15.40;;;;;;;;;;5017350;28;20340;-83
2021/03/18 07:13:21;;;;;;;23.88;14.57;;;;;;;;;;5000326;28;20046;-83
2021/03/18 07:15:48;;;;;;;40.90;22.73;;;;;;;;;;5021195;28;20026;-83
2021/03/18 07:18:14;;;;;;;30.08;16.63;;;;;;;;;;5021129;28;20026;-83
2021/03/18 07:20:54;;;;;;;29.73;16.88;;;;;;;;;;5020812;28;20084;-83
2021/03/18 07:23:20;;;;;;;36.65;21.35;;;;;;;;;;5021140;28;20081;-83
2021/03/18 07:25:47;;;;;;;27.27;16.30;;;;;;;;;;5021051;28;20030;-84
2021/03/18 07:28:16;;;;;;;25.10;15.88;;;;;;;;;;5003140;28;20124;-84
2021/03/18 07:30:43;;;;;;;25.63;15.45;;;;;;;;;;5020670;28;20025;-83
2021/03/18 07:33:09;;;;;;;24.63;14.80;;;;;;;;;;5020562;28;20034;-83
2021/03/18 07:35:36;;;;;;;19.75;12.45;;;;;;;;;;5020490;28;20025;-83
2021/03/18 07:38:03;;;;;;;20.52;13.55;;;;;;;;;;5020464;28;20400;-83
2021/03/18 07:40:29;;;;;;;26.25;15.55;;;;;;;;;;5020649;28;20045;-83
2021/03/18 07:42:56;;;;;;;24.63;14.60;;;;;;;;;;5002794;28;20076;-83
2021/03/18 07:45:24;;;;;;;23.15;13.68;;;;;;;;;;5020250;28;20026;-83
2021/03/18 07:47:50;;;;;;;22.58;12.75;;;;;;;;;;5020233;28;20034;-83
2021/03/18 07:50:18;;;;;;;36.13;18.15;;;;;;;;;;5019944;28;20054;-84
2021/03/18 07:52:45;;;;;;;25.80;14.93;;;;;;;;;;5020218;28;20045;-84
2021/03/18 07:55:15;;;;;;;34.92;19.15;;;;;;;;;;5020237;28;20022;-84
2021/03/18 07:57:47;;;;;;;23.08;14.63;;;;;;;;;;5002699;28;20025;-83
2021/03/18 08:00:16;;;;;;;40.63;20.15;;;;;;;;;;5020138;28;20022;-83
2021/03/18 08:02:42;;;;;;;52.35;22.08;;;;;;;;;;5020031;28;20030;-84
2021/03/18 08:05:08;;;;;;;46.30;19.20;;;;;;;;;;5002868;28;20428;-83
2021/03/18 08:07:47;;;;;;;49.33;21.50;;;;;;;;;;5019969;28;20041;-83
2021/03/18 08:10:22;;;;;;;42.15;20.08;;;;;;;;;;5014260;28;20026;-83
2021/03/18 08:12:50;;;;;;;48.75;22.38;;;;;;;;;;5009265;28;20057;-83
2021/03/18 08:15:22;;;;;;;56.05;22.48;;;;;;;;;;5016894;28;20117;-84
2021/03/18 08:17:49;;;;;;;66.60;23.42;;;;;;;;;;5020026;28;20029;-83
2021/03/18 08:20:33;;;;;;;43.97;19.00;;;;;;;;;;5019937;28;20026;-83
2021/03/18 08:22:59;;;;;;;51.95;22.20;;;;;;;;;;5019730;28;20053;-84
2021/03/18 08:25:26;;;;;;;57.03;23.10;;;;;;;;;;5019494;28;20058;-84
2021/03/18 08:27:52;;;;;;;47.08;22.27;;;;;;;;;;5019680;28;20108;-84
2021/03/18 08:30:25;;;;;;;73.63;34.50;;;;;;;;;;5019476;28;20101;-83
2021/03/18 08:32:51;;;;;;;62.80;28.50;;;;;;;;;;5019752;28;20033;-83
2021/03/18 08:35:28;;;;;;;78.75;30.80;;;;;;;;;;5019453;28;20023;-83
2021/03/18 08:37:55;;;;;;;68.35;28.45;;;;;;;;;;5019638;28;20316;-83
2021/03/18 08:40:22;;;;;;;63.15;25.95;;;;;;;;;;5019734;28;20038;-83
2021/03/18 08:42:49;;;;;;;74.78;30.17;;;;;;;;;;5019327;28;20340;-83
2021/03/18 08:45:18;;;;;;;81.10;30.65;;;;;;;;;;5019433;28;20049;-83
2021/03/18 08:47:49;;;;;;;77.90;29.65;;;;;;;;;;5019464;28;20042;-83
2021/03/18 08:50:35;;;;;;;82.95;31.00;;;;;;;;;;5001981;28;20030;-83
2021/03/18 08:53:02;;;;;;;89.07;29.98;;;;;;;;;;4939999;29;20043;-83
2021/03/18 08:55:37;;;;;;;50.20;24.70;;;;;;;;;;4939793;29;20354;-84
2021/03/18 08:58:04;;;;;;;38.15;20.77;;;;;;;;;;4939990;29;20043;-83
2021/03/18 09:00:30;;;;;;;54.30;27.73;;;;;;;;;;4939874;29;20023;-83
2021/03/18 09:02:56;;;;;;;54.15;19.98;;;;;;;;;;4923726;29;20020;-83
2021/03/18 09:05:22;;;;;;;32.67;19.20;;;;;;;;;;4939768;29;20038;-83
2021/03/18 09:07:56;;;;;;;30.67;19.10;;;;;;;;;;4939775;29;20505;-83
2021/03/18 09:10:24;;;;;;;279.08;115.60;;;;;;;;;;4923755;29;20593;-82
2021/03/18 09:12:50;;;;;;;43.33;24.38;;;;;;;;;;4923957;29;20046;-83
2021/03/18 09:15:36;;;;;;;42.70;21.50;;;;;;;;;;4939498;29;20426;-83
2021/03/18 09:18:12;;;;;;;41.15;21.48;;;;;;;;;;4939347;29;20422;-83
2021/03/18 09:20:39;;;;;;;35.40;18.75;;;;;;;;;;4923353;29;20315;-83
2021/03/18 09:23:30;;;;;;;34.63;18.85;;;;;;;;;;4923881;29;20087;-83
2021/03/18 09:25:58;;;;;;;42.72;20.90;;;;;;;;;;4936866;29;20414;-82
2021/03/18 09:28:24;;;;;;;32.50;16.95;;;;;;;;;;4939420;29;20058;-83
2021/03/18 09:30:54;;;;;;;35.03;18.45;;;;;;;;;;5004354;28;20057;-82
2021/03/18 09:33:25;;;;;;;31.38;16.40;;;;;;;;;;5018359;28;20030;-84
2021/03/18 09:35:53;;;;;;;27.85;16.50;;;;;;;;;;5000553;28;20105;-83
2021/03/18 09:38:25;;;;;;;37.97;19.52;;;;;;;;;;5018248;28;20049;-83
2021/03/18 09:40:51;;;;;;;38.37;21.43;;;;;;;;;;5018590;28;20046;-84
2021/03/18 09:43:19;;;;;;;30.00;18.42;;;;;;;;;;5018656;28;20065;-85
2021/03/18 09:45:48;;;;;;;30.83;17.10;;;;;;;;;;5018593;28;20735;-88
2021/03/18 09:48:22;;;;;;;27.85;16.77;;;;;;;;;;5018303;28;20060;-87
2021/03/18 09:50:50;;;;;;;27.58;15.95;;;;;;;;;;5001090;28;20124;-88
2021/03/18 09:53:16;;;;;;;24.45;15.75;;;;;;;;;;5018634;28;20026;-87
2021/03/18 09:55:42;;;;;;;29.65;15.60;;;;;;;;;;5000830;28;20327;-88
2021/03/18 09:58:09;;;;;;;31.23;18.55;;;;;;;;;;5018538;28;20018;-88
2021/03/18 10:00:35;;;;;;;23.77;15.75;;;;;;;;;;5018273;28;20022;-89
2021/03/18 10:03:01;;;;;;;26.15;17.70;;;;;;;;;;5018272;28;20097;-88
2021/03/18 10:05:28;;;;;;;43.53;24.80;;;;;;;;;;5017854;28;20022;-88
2021/03/18 10:07:57;;;;;;;94.25;31.95;;;;;;;;;;5018388;28;20055;-88
2021/03/18 10:10:23;;;;;;;32.13;18.15;;;;;;;;;;5018391;28;20488;-88
2021/03/18 10:12:50;;;;;;;27.38;16.38;;;;;;;;;;5018328;28;20021;-88
2021/03/18 10:15:17;;;;;;;27.23;17.40;;;;;;;;;;5017814;28;20021;-87
2021/03/18 10:17:44;;;;;;;31.63;18.77;;;;;;;;;;5000461;28;20030;-87
2021/03/18 10:20:16;;;;;;;30.20;20.20;;;;;;;;;;5018704;28;20038;-83
2021/03/18 10:22:46;;;;;;;30.10;19.00;;;;;;;;;;5017365;28;20502;-80
2021/03/18 10:25:15;;;;;;;33.83;20.27;;;;;;;;;;5017185;28;20364;-80
2021/03/18 10:27:43;;;;;;;29.35;18.95;;;;;;;;;;5017495;28;20044;-80
2021/03/18 10:30:14;;;;;;;47.22;25.17;;;;;;;;;;5000114;28;20420;-80
2021/03/18 10:32:40;;;;;;;65.18;29.38;;;;;;;;;;5017215;28;20261;-80
2021/03/18 10:35:08;;;;;;;51.08;23.20;;;;;;;;;;5017397;28;20320;-81
2021/03/18 10:37:38;;;;;;;56.13;24.08;;;;;;;;;;5017398;28;20072;-81
2021/03/18 10:40:12;;;;;;;63.60;26.88;;;;;;;;;;5017308;28;20030;-81
2021/03/18 10:42:38;;;;;;;39.70;18.35;;;;;;;;;;5017309;28;20022;-81
2021/03/18 10:45:14;;;;;;;58.70;27.60;;;;;;;;;;5017150;28;20393;-80
2021/03/18 10:47:41;;;;;;;98.43;35.22;;;;;;;;;;5017877;28;20040;-80
2021/03/18 10:50:08;;;;;;;82.03;33.92;;;;;;;;;;5003914;28;20022;-81
2021/03/18 10:52:34;;;;;;;73.30;30.75;;;;;;;;;;5003453;28;20113;-80
2021/03/18 10:55:01;;;;;;;75.03;29.50;;;;;;;;;;5021039;28;20033;-80
2021/03/18 10:57:27;;;;;;;28.05;16.75;;;;;;;;;;5021099;28;20061;-81
2021/03/18 10:59:57;;;;;;;49.33;24.45;;;;;;;;;;5020781;28;20026;-81
2021/03/18 11:02:32;;;;;;;53.95;25.90;;;;;;;;;;5014886;28;20408;-81
2021/03/18 11:04:59;;;;;;;68.70;29.77;;;;;;;;;;5003979;28;20040;-89
2021/03/18 11:07:26;;;;;;;63.13;28.20;;;;;;;;;;5001659;28;20031;-88
2021/03/18 11:10:15;;;;;;;55.40;27.02;;;;;;;;;;5002053;28;20053;-86
2021/03/18 11:12:41;;;;;;;65.88;27.08;;;;;;;;;;5001943;28;20034;-88
2021/03/18 11:15:09;;;;;;;36.33;21.02;;;;;;;;;;5001743;28;20030;-87
2021/03/18 11:17:35;;;;;;;25.77;16.63;;;;;;;;;;5002120;28;20023;-89
2021/03/18 11:20:14;;;;;;;27.63;17.02;;;;;;;;;;5001729;28;20072;-90
2021/03/18 11:22:41;;;;;;;23.85;16.85;;;;;;;;;;4980948;28;20453;-90
2021/03/18 11:25:07;;;;;;;24.42;16.20;;;;;;;;;;4982370;28;20026;-89
2021/03/18 11:27:34;;;;;;;26.05;16.98;;;;;;;;;;4982129;28;20034;-89
2021/03/18 11:30:00;;;;;;;24.35;15.95;;;;;;;;;;4981216;28;20022;-89
2021/03/18 11:35:29;;;;;;;25.20;16.02;;;;;;;;;;4982013;28;20037;-88
2021/03/18 11:37:55;;;;;;;24.98;16.30;;;;;;;;;;4981115;28;20313;-88
2021/03/18 11:40:22;;;;;;;21.88;13.68;;;;;;;;;;4981144;28;20027;-88
2021/03/18 11:42:48;;;;;;;22.05;14.43;;;;;;;;;;4982053;28;20402;-89
2021/03/18 11:45:14;;;;;;;24.25;15.48;;;;;;;;;;4980824;28;20031;-89
2021/03/18 11:47:59;;;;;;;23.38;13.80;;;;;;;;;;4981745;28;20026;-89
2021/03/18 11:50:27;;;;;;;20.35;13.13;;;;;;;;;;4981393;28;20054;-89
2021/03/18 11:52:53;;;;;;;22.00;14.63;;;;;;;;;;4980615;28;20027;-88
2021/03/18 11:55:19;;;;;;;22.83;14.63;;;;;;;;;;4981455;28;20023;-88
2021/03/18 11:57:46;;;;;;;24.65;13.75;;;;;;;;;;4981487;28;20058;-88
2021/03/18 12:00:12;;;;;;;16.52;11.55;;;;;;;;;;4980068;28;20022;-89
2021/03/18 12:05:42;;;;;;;19.55;12.13;;;;;;;;;;4981749;28;20030;-86
2021/03/18 12:08:10;;;;;;;14.73;10.30;;;;;;;;;;4981394;28;20425;-87
2021/03/18 12:10:37;;;;;;;55.90;24.60;;;;;;;;;;4980372;28;20018;-87
2021/03/18 12:13:03;;;;;;;19.90;12.00;;;;;;;;;;4981055;28;20050;-88
2021/03/18 12:15:29;;;;;;;16.08;9.93;;;;;;;;;;4980997;28;20413;-88
2021/03/18 12:17:55;;;;;;;46.10;20.70;;;;;;;;;;4981146;28;20052;-88
2021/03/18 12:20:23;;;;;;;16.48;10.88;;;;;;;;;;4981129;28;20019;-87
2021/03/18 12:22:49;;;;;;;13.52;8.80;;;;;;;;;;4980168;28;20042;-87
2021/03/18 12:25:17;;;;;;;12.80;8.68;;;;;;;;;;4981387;28;20401;-87
2021/03/18 12:27:43;;;;;;;20.48;11.80;;;;;;;;;;4980052;28;20073;-88
2021/03/18 12:30:11;;;;;;;14.73;10.02;;;;;;;;;;4980023;28;20031;-88
2021/03/18 12:38:44;;;;;;;17.63;8.57;;;;;;;;;;4980949;28;20113;-88
2021/03/18 12:41:10;;;;;;;11.65;6.97;;;;;;;;;;4981017;28;20030;-87
2021/03/18 12:43:36;;;;;;;7.20;4.68;;;;;;;;;;4980805;28;20114;-88
2021/03/18 12:49:44;;;;;;;12.10;5.30;;;;;;;;;;4980510;28;20029;-87
2021/03/18 12:52:10;;;;;;;9.82;6.55;;;;;;;;;;4979483;28;20034;-87
2021/03/18 12:54:36;;;;;;;13.20;7.40;;;;;;;;;;4979449;28;20110;-87
2021/03/18 12:57:03;;;;;;;13.50;7.85;;;;;;;;;;4979188;28;20110;-86
2021/03/18 12:59:29;;;;;;;11.43;6.75;;;;;;;;;;4979070;28;20038;-86
2021/03/18 13:02:14;;;;;;;10.55;6.90;;;;;;;;;;4980603;28;20034;-87
2021/03/18 13:04:40;;;;;;;10.23;6.25;;;;;;;;;;4979279;28;20440;-87
2021/03/18 13:07:06;;;;;;;8.57;4.50;;;;;;;;;;4980155;28;20035;-86
2021/03/18 13:09:33;;;;;;;20.63;8.02;;;;;;;;;;4980382;28;20026;-86
2021/03/18 13:11:59;;;;;;;11.65;5.90;;;;;;;;;;4979364;28;20026;-86
2021/03/18 13:14:25;;;;;;;41.28;14.23;;;;;;;;;;4979021;28;20129;-86
2021/03/18 13:16:51;;;;;;;58.40;18.08;;;;;;;;;;4980301;28;20030;-86
2021/03/18 13:19:17;;;;;;;8.00;4.47;;;;;;;;;;4980226;28;20029;-87
2021/03/18 13:21:43;;;;;;;4.45;3.38;;;;;;;;;;4983811;28;20046;-86
2021/03/18 13:24:10;;;;;;;5.32;3.50;;;;;;;;;;4982609;28;20034;-86
2021/03/18 13:26:36;;;;;;;6.85;3.78;;;;;;;;;;4999192;28;20046;-86
2021/03/18 13:29:03;;;;;;;6.10;4.28;;;;;;;;;;4999352;28;20030;-87
2021/03/18 13:32:06;;;;;;;8.00;5.00;;;;;;;;;;4999160;28;20420;-86
2021/03/18 13:34:32;;;;;;;7.95;4.93;;;;;;;;;;4998860;28;20027;-86
2021/03/18 13:36:58;;;;;;;14.30;6.70;;;;;;;;;;4998912;28;20109;-86
2021/03/18 13:39:24;;;;;;;7.90;4.10;;;;;;;;;;4998901;28;20026;-86
2021/03/18 13:41:53;;;;;;;26.55;10.50;;;;;;;;;;4999003;28;20409;-85
2021/03/18 13:44:19;;;;;;;14.05;6.38;;;;;;;;;;4981602;28;20042;-86
2021/03/18 13:46:45;;;;;;;23.13;8.30;;;;;;;;;;4998923;28;20030;-85
2021/03/18 13:49:11;;;;;;;27.58;9.65;;;;;;;;;;4999074;28;20034;-85
2021/03/18 13:51:37;;;;;;;18.92;6.93;;;;;;;;;;4998813;28;20031;-86
2021/03/18 13:54:03;;;;;;;5.90;3.60;;;;;;;;;;4999049;28;20023;-86
2021/03/18 13:56:30;;;;;;;4.97;3.47;;;;;;;;;;4998757;28;20049;-85
2021/03/18 13:58:56;;;;;;;7.90;4.00;;;;;;;;;;4981222;28;20034;-85
2021/03/18 14:01:22;;;;;;;5.30;3.50;;;;;;;;;;4981090;28;20034;-86
2021/03/18 14:03:49;;;;;;;5.75;3.67;;;;;;;;;;4999024;28;20113;-85
2021/03/18 14:06:15;;;;;;;6.82;3.42;;;;;;;;;;4980892;28;20333;-86
2021/03/18 14:08:41;;;;;;;4.65;3.22;;;;;;;;;;4981198;28;20089;-85
2021/03/18 14:11:07;;;;;;;5.80;3.40;;;;;;;;;;4998826;28;20026;-85
2021/03/18 14:13:33;;;;;;;4.45;2.92;;;;;;;;;;4980929;28;20096;-86
2021/03/18 14:19:03;;;;;;;6.25;4.90;;;;;;;;;;4998468;28;20033;-85
2021/03/18 14:21:29;;;;;;;6.00;4.07;;;;;;;;;;4998073;28;20118;-84
2021/03/18 14:23:55;;;;;;;5.07;3.70;;;;;;;;;;5007711;28;20022;-85
2021/03/18 14:26:22;;;;;;;6.03;4.38;;;;;;;;;;5017833;28;20022;-85
2021/03/18 14:28:48;;;;;;;9.88;6.38;;;;;;;;;;5017944;28;20156;-85
2021/03/18 14:31:35;;;;;;;6.90;4.00;;;;;;;;;;5017648;28;20026;-86
2021/03/18 14:34:02;;;;;;;6.22;3.97;;;;;;;;;;5016019;28;20034;-85
2021/03/18 14:36:28;;;;;;;7.22;4.22;;;;;;;;;;4997944;28;20023;-85
2021/03/18 14:38:54;;;;;;;4.28;2.58;;;;;;;;;;4998994;28;20065;-84
2021/03/18 14:41:20;;;;;;;4.03;3.20;;;;;;;;;;5000952;28;20026;-85
2021/03/18 14:43:47;;;;;;;10.15;4.00;;;;;;;;;;5017524;28;20058;-85
2021/03/18 14:49:17;;;;;;;6.88;3.40;;;;;;;;;;5017949;28;20139;-85